Time;durP1;ratioP1;P1;durP2;ratioP2;P2;SDS_P1;SDS_P2;PMS_P1;PMS_P2;Temp;Humidity;BMP_temperature;BMP_pressure;BME280_temperature;BME280_humidity;BME280_pressure;Samples;Min_cycle;Max_cycle;Signal;HPM_P1;HPM_P2
2021/09/09 00:02:19;;;;;;;9.07;6.07;;;;;;;21.79;49.85;99569.41;6220056;23;20099;-80
2021/09/09 00:04:50;;;;;;;13.02;7.35;;;;;;;21.73;50.25;99557.53;6219606;23;20078;-80
2021/09/09 00:07:19;;;;;;;8.57;6.35;;;;;;;21.74;49.85;99561.88;6219461;23;20051;-80
2021/09/09 00:09:45;;;;;;;8.80;6.60;;;;;;;21.70;49.53;99557.81;6219987;23;20154;-80
2021/09/09 00:12:12;;;;;;;10.43;6.97;;;;;;;21.68;49.83;99556.31;6219601;23;20090;-80
2021/09/09 00:14:40;;;;;;;8.55;6.65;;;;;;;21.65;49.86;99546.78;6219453;23;20095;-80
2021/09/09 00:17:07;;;;;;;8.40;6.57;;;;;;;21.63;50.00;99548.75;6246564;23;20087;-80
2021/09/09 00:19:34;;;;;;;9.60;6.68;;;;;;;21.61;49.86;99546.25;6219395;23;20024;-80
2021/09/09 00:22:05;;;;;;;7.43;6.50;;;;;;;21.56;50.44;99537.88;6220116;23;20503;-80
2021/09/09 00:24:32;;;;;;;7.68;6.80;;;;;;;21.57;50.19;99534.19;6245824;23;20107;-80
2021/09/09 00:26:59;;;;;;;7.95;6.80;;;;;;;21.55;50.16;99533.53;6219624;23;20095;-80
2021/09/09 00:29:28;;;;;;;10.95;6.85;;;;;;;21.54;50.26;99528.34;6219477;23;20024;-80
2021/09/09 00:31:54;;;;;;;9.02;6.97;;;;;;;21.53;50.26;99532.84;6219017;23;20021;-80
2021/09/09 00:34:21;;;;;;;7.43;6.50;;;;;;;21.52;50.34;99523.13;6219364;23;20032;-80
2021/09/09 00:36:52;;;;;;;10.13;7.13;;;;;;;21.48;50.56;99522.63;6219494;23;20115;-80
2021/09/09 00:39:19;;;;;;;9.27;7.15;;;;;;;21.48;50.11;99514.59;6219992;23;20091;-80
2021/09/09 00:41:46;;;;;;;10.32;8.25;;;;;;;21.47;50.61;99517.44;6219271;23;20102;-80
2021/09/09 00:44:24;;;;;;;8.95;7.90;;;;;;;21.41;51.01;99524.28;6245886;23;20070;-80
2021/09/09 00:47:03;;;;;;;10.60;8.25;;;;;;;21.42;50.73;99522.47;6219415;23;20020;-80
2021/09/09 00:49:31;;;;;;;9.40;7.85;;;;;;;21.45;50.64;99514.06;6219753;23;20028;-80
2021/09/09 00:51:58;;;;;;;8.32;7.10;;;;;;;21.43;50.68;99516.94;6219774;23;20103;-80
2021/09/09 00:54:25;;;;;;;11.35;8.43;;;;;;;21.42;50.67;99517.09;6219687;23;20096;-80
2021/09/09 00:56:56;;;;;;;10.88;8.27;;;;;;;21.41;51.44;99510.91;6219601;23;20103;-80
2021/09/09 00:59:27;;;;;;;9.77;7.80;;;;;;;21.40;51.18;99511.91;6219794;23;20386;-80
2021/09/09 01:01:54;;;;;;;10.23;8.40;;;;;;;21.41;50.80;99512.75;6219520;23;20462;-80
2021/09/09 01:04:29;;;;;;;10.77;8.23;;;;;;;21.37;51.88;99501.53;6247541;23;20091;-80
2021/09/09 01:06:57;;;;;;;11.70;8.05;;;;;;;21.39;50.87;99507.56;6221373;23;20043;-80
2021/09/09 01:09:23;;;;;;;9.23;8.13;;;;;;;21.38;51.04;99505.03;6221297;23;20066;-80
2021/09/09 01:11:50;;;;;;;13.02;8.57;;;;;;;21.36;50.94;99505.22;6221173;23;20055;-80
2021/09/09 01:14:18;;;;;;;9.55;8.55;;;;;;;21.35;50.98;99500.88;6221751;23;20099;-80
2021/09/09 01:16:46;;;;;;;11.63;8.48;;;;;;;21.34;50.93;99512.56;6221625;23;20087;-80
2021/09/09 01:19:14;;;;;;;10.95;8.57;;;;;;;21.32;51.31;99501.19;6221157;23;20099;-80
2021/09/09 01:21:41;;;;;;;10.45;8.48;;;;;;;21.32;51.22;99502.03;6221214;23;20099;-80
2021/09/09 01:24:12;;;;;;;9.77;8.10;;;;;;;21.31;51.38;99497.66;6221053;23;20028;-80
2021/09/09 01:26:48;;;;;;;9.73;8.02;;;;;;;21.28;52.18;99486.44;6221134;23;20095;-80
2021/09/09 01:29:18;;;;;;;10.68;8.25;;;;;;;21.31;51.67;99494.16;6221649;23;20095;-80
2021/09/09 01:31:45;;;;;;;9.07;7.70;;;;;;;21.30;51.46;99489.81;6221426;23;20030;-80
2021/09/09 01:34:12;;;;;;;8.98;7.82;;;;;;;21.29;51.29;99488.13;6221239;23;20358;-80
2021/09/09 01:36:39;;;;;;;8.55;7.10;;;;;;;21.27;51.34;99485.59;6221032;23;20091;-80
2021/09/09 01:39:09;;;;;;;10.50;8.38;;;;;;;21.24;51.97;99480.59;6221000;23;20056;-80
2021/09/09 01:41:36;;;;;;;12.30;8.30;;;;;;;21.24;51.59;99479.75;6220790;23;20099;-80
2021/09/09 01:44:04;;;;;;;12.07;9.02;;;;;;;21.22;51.50;99494.13;6221196;23;20023;-80
2021/09/09 01:46:31;;;;;;;10.10;8.20;;;;;;;21.19;51.58;99473.03;6220992;23;20034;-80
2021/09/09 01:48:58;;;;;;;10.00;8.23;;;;;;;21.18;51.48;99466.03;6221060;23;20059;-80
2021/09/09 01:51:26;;;;;;;10.23;8.57;;;;;;;21.16;51.51;99467.19;6221150;23;20024;-80
2021/09/09 01:53:56;;;;;;;11.07;8.50;;;;;;;21.12;52.33;99477.38;6220653;23;20033;-80
2021/09/09 01:56:23;;;;;;;10.00;8.07;;;;;;;21.12;51.61;99476.56;6221012;23;20098;-80
2021/09/09 01:58:52;;;;;;;11.52;8.40;;;;;;;21.09;51.86;99478.53;6220739;23;20020;-80
2021/09/09 02:01:19;;;;;;;9.77;8.10;;;;;;;21.09;51.74;99473.19;6220579;23;20099;-80
2021/09/09 02:03:52;;;;;;;11.02;8.55;;;;;;;21.06;52.53;99472.69;6247339;23;20099;-80
2021/09/09 02:06:19;;;;;;;10.35;8.45;;;;;;;21.08;52.04;99470.66;6221458;23;20483;-80
2021/09/09 02:08:52;;;;;;;10.65;8.07;;;;;;;21.06;52.35;99475.34;6220678;23;20059;-80
2021/09/09 02:11:20;;;;;;;11.00;8.45;;;;;;;21.06;51.84;99465.50;6220548;23;20066;-80
2021/09/09 02:13:50;;;;;;;9.57;7.85;;;;;;;21.05;52.31;99463.00;6220754;23;20091;-80
2021/09/09 02:16:17;;;;;;;13.93;8.93;;;;;;;21.05;51.99;99466.47;6220244;23;20034;-80
2021/09/09 02:18:50;;;;;;;10.88;8.75;;;;;;;21.02;52.83;99453.44;6220776;23;20035;-80
2021/09/09 02:21:17;;;;;;;9.75;7.07;;;;;;;21.03;52.19;99455.13;6221030;23;20028;-80
2021/09/09 02:23:43;;;;;;;10.52;8.07;;;;;;;21.03;52.14;99454.28;6220277;23;20096;-80
2021/09/09 02:26:10;;;;;;;12.73;9.07;;;;;;;21.01;52.30;99453.59;6221092;23;20511;-80
2021/09/09 02:28:37;;;;;;;12.00;8.93;;;;;;;21.00;52.44;99450.09;6220931;23;20408;-80
2021/09/09 02:31:04;;;;;;;9.75;8.38;;;;;;;21.00;52.60;99457.28;6220766;23;20067;-80
2021/09/09 02:33:31;;;;;;;11.35;8.77;;;;;;;20.99;52.43;99455.59;6221201;23;20051;-80
2021/09/09 02:35:58;;;;;;;11.13;9.35;;;;;;;20.95;52.46;99453.25;6220292;23;20035;-80
2021/09/09 02:38:25;;;;;;;12.35;9.05;;;;;;;20.95;52.89;99455.94;6220838;23;20074;-80
2021/09/09 02:40:52;;;;;;;10.10;8.38;;;;;;;20.93;52.49;99447.22;6220580;23;20134;-80
2021/09/09 02:43:18;;;;;;;12.10;8.98;;;;;;;20.92;52.75;99445.56;6221021;23;20095;-80
2021/09/09 02:45:46;;;;;;;11.30;9.10;;;;;;;20.89;52.74;99445.88;6219533;23;20024;-80
2021/09/09 02:48:13;;;;;;;11.77;8.68;;;;;;;20.87;52.53;99447.88;6220059;23;20346;-80
2021/09/09 02:50:40;;;;;;;10.00;8.20;;;;;;;20.86;52.79;99451.50;6220030;23;20110;-80
2021/09/09 02:53:09;;;;;;;11.15;9.15;;;;;;;20.82;52.94;99439.50;6220415;23;20123;-80
2021/09/09 02:55:36;;;;;;;10.40;8.70;;;;;;;20.80;52.79;99436.97;6219686;23;20095;-80
2021/09/09 02:58:03;;;;;;;11.35;8.20;;;;;;;20.78;52.89;99438.13;6220085;23;20030;-80
2021/09/09 03:00:31;;;;;;;10.05;8.57;;;;;;;20.76;53.13;99430.28;6220266;23;20095;-80
2021/09/09 03:02:57;;;;;;;12.23;9.05;;;;;;;;;;6220316;23;20107;-80
2021/09/09 03:05:25;;;;;;;10.90;8.73;;;;;;;20.72;53.16;99428.91;6220304;23;20031;-80
2021/09/09 03:07:51;;;;;;;10.70;8.98;;;;;;;20.70;52.96;99429.06;6220565;23;20320;-80
2021/09/09 03:10:18;;;;;;;11.30;9.27;;;;;;;20.68;52.99;99423.03;6220393;23;20107;-80
2021/09/09 03:12:45;;;;;;;13.80;9.90;;;;;;;20.67;53.17;99418.69;6220036;23;20024;-80
2021/09/09 03:15:13;;;;;;;11.45;8.98;;;;;;;20.65;53.10;99414.50;6219719;23;20090;-80
2021/09/09 03:17:39;;;;;;;11.80;8.75;;;;;;;20.65;53.14;99417.19;6220566;23;20087;-80
2021/09/09 03:20:06;;;;;;;9.63;8.43;;;;;;;20.63;53.34;99420.00;6220696;23;20030;-80
2021/09/09 03:22:34;;;;;;;9.75;8.35;;;;;;;20.62;53.03;99406.81;6220803;23;20423;-80
2021/09/09 03:25:01;;;;;;;10.65;8.70;;;;;;;20.60;53.20;99404.31;6219884;23;20070;-80
2021/09/09 03:27:28;;;;;;;10.05;8.65;;;;;;;20.60;53.09;99406.13;6220208;23;20499;-80
2021/09/09 03:29:56;;;;;;;11.95;8.48;;;;;;;20.57;53.12;99401.97;6220202;23;20034;-80
2021/09/09 03:32:23;;;;;;;12.75;8.77;;;;;;;20.55;53.28;99398.59;6219902;23;20102;-80
2021/09/09 03:34:51;;;;;;;10.45;8.48;;;;;;;20.54;54.15;99405.78;6220198;23;20067;-80
2021/09/09 03:37:18;;;;;;;11.02;8.68;;;;;;;20.53;53.66;99405.94;6220372;23;20802;-80
2021/09/09 03:39:45;;;;;;;10.38;7.88;;;;;;;20.51;53.47;99397.25;6246913;23;20070;-80
2021/09/09 03:42:12;;;;;;;14.02;9.20;;;;;;;20.48;53.45;99398.41;6220068;23;20427;-80
2021/09/09 03:44:38;;;;;;;10.23;9.02;;;;;;;20.46;53.83;99400.41;6219738;23;20098;-80
2021/09/09 03:47:08;;;;;;;11.30;8.27;;;;;;;20.42;54.07;99401.72;6220286;23;20411;-80
2021/09/09 03:49:36;;;;;;;10.13;8.80;;;;;;;20.42;53.72;99388.38;6219552;23;20107;-80
2021/09/09 03:52:03;;;;;;;11.20;8.77;;;;;;;20.40;53.93;99388.53;6219753;23;20114;-80
2021/09/09 03:54:31;;;;;;;9.00;7.85;;;;;;;20.36;54.13;99387.16;6246416;23;20403;-80
2021/09/09 03:56:58;;;;;;;14.10;8.27;;;;;;;20.36;54.42;99392.50;6220047;23;20087;-80
2021/09/09 03:59:24;;;;;;;9.93;8.60;;;;;;;20.34;54.14;99389.16;6219752;23;20051;-80
2021/09/09 04:01:51;;;;;;;11.13;8.65;;;;;;;20.34;53.99;99386.50;6246174;23;20107;-80
2021/09/09 04:04:19;;;;;;;10.50;7.93;;;;;;;20.30;53.89;99382.47;6245906;23;20103;-80
2021/09/09 04:06:46;;;;;;;13.27;9.48;;;;;;;20.29;54.13;99375.44;6220069;23;20066;-80
2021/09/09 04:09:13;;;;;;;11.40;7.45;;;;;;;20.26;53.78;99376.59;6219573;23;20020;-80
2021/09/09 04:11:41;;;;;;;8.27;7.47;;;;;;;20.24;53.85;99375.06;6219935;23;20095;-80
2021/09/09 04:14:07;;;;;;;11.10;8.43;;;;;;;20.22;54.14;99364.53;6245921;23;20063;-80
2021/09/09 04:16:34;;;;;;;9.63;8.38;;;;;;;20.20;53.93;99368.38;6220124;23;20402;-80
2021/09/09 04:19:03;;;;;;;11.43;8.90;;;;;;;20.17;54.64;99372.22;6220168;23;20393;-80
2021/09/09 04:21:30;;;;;;;13.13;8.25;;;;;;;20.17;54.41;99372.22;6219727;23;20024;-80
2021/09/09 04:23:57;;;;;;;9.80;8.13;;;;;;;20.14;54.29;99367.19;6219902;23;20455;-80
2021/09/09 04:26:25;;;;;;;11.98;8.82;;;;;;;20.12;54.34;99367.38;6219848;23;20059;-80
2021/09/09 04:28:52;;;;;;;11.43;8.20;;;;;;;20.10;54.62;99360.47;6219471;23;20163;-80
2021/09/09 04:31:19;;;;;;;9.73;8.23;;;;;;;20.08;54.38;99354.47;6219449;23;20026;-80
2021/09/09 04:33:45;;;;;;;9.20;7.95;;;;;;;20.07;54.58;99361.63;6219692;23;20394;-80
2021/09/09 04:36:12;;;;;;;9.20;8.02;;;;;;;20.05;54.55;99358.31;6219571;23;20020;-80
2021/09/09 04:38:39;;;;;;;12.05;8.50;;;;;;;20.04;54.39;99353.97;6220586;23;20095;-80
2021/09/09 04:41:05;;;;;;;10.32;7.63;;;;;;;20.02;54.24;99354.13;6222068;23;20405;-80
2021/09/09 04:43:34;;;;;;;12.75;7.95;;;;;;;20.00;54.57;99347.25;6222079;23;20510;-80
2021/09/09 04:46:01;;;;;;;10.40;8.35;;;;;;;20.00;54.60;99355.28;6221730;23;20119;-80
2021/09/09 04:48:28;;;;;;;11.50;8.50;;;;;;;20.00;55.10;99352.59;6221733;23;20020;-80
2021/09/09 04:50:55;;;;;;;9.52;8.27;;;;;;;19.99;54.56;99358.91;6248022;23;20098;-80
2021/09/09 04:53:22;;;;;;;9.68;7.53;;;;;;;19.99;54.56;99358.91;6247828;23;20127;-80
2021/09/09 04:55:49;;;;;;;10.85;7.68;;;;;;;19.98;54.71;99357.22;6221505;23;20398;-80
2021/09/09 04:58:15;;;;;;;11.65;8.15;;;;;;;19.96;54.42;99354.69;6247821;23;20012;-80
2021/09/09 05:00:44;;;;;;;9.90;7.38;;;;;;;19.95;55.12;99360.22;6221407;23;20020;-80
2021/09/09 05:03:11;;;;;;;10.88;9.18;;;;;;;19.94;54.67;99356.72;6221667;23;20435;-80
2021/09/09 05:05:38;;;;;;;9.38;8.18;;;;;;;19.93;54.98;99357.72;6221710;23;20657;-81
2021/09/09 05:08:07;;;;;;;9.90;7.72;;;;;;;19.91;54.59;99357.00;6221285;23;20087;-81
2021/09/09 05:10:33;;;;;;;9.63;7.80;;;;;;;19.90;54.41;99360.69;6221474;23;20110;-80
2021/09/09 05:13:00;;;;;;;8.77;7.40;;;;;;;19.88;54.55;99352.84;6221634;23;20103;-80
2021/09/09 05:15:27;;;;;;;8.45;7.53;;;;;;;19.88;54.50;99354.66;6221582;23;20030;-81
2021/09/09 05:17:54;;;;;;;9.68;7.68;;;;;;;19.87;54.70;99353.84;6221495;23;20099;-80
2021/09/09 05:20:22;;;;;;;8.88;7.57;;;;;;;19.86;54.90;99354.00;6221298;23;20100;-81
2021/09/09 05:22:48;;;;;;;8.07;7.22;;;;;;;19.86;54.52;99360.19;6221540;23;20513;-80
2021/09/09 05:25:20;;;;;;;12.00;7.68;;;;;;;19.84;54.93;99362.16;6221076;23;20027;-81
2021/09/09 05:27:47;;;;;;;9.48;7.88;;;;;;;19.86;54.42;99354.84;6221046;23;20020;-81
2021/09/09 05:30:15;;;;;;;7.93;7.13;;;;;;;19.86;54.54;99354.84;6221250;23;20033;-81
2021/09/09 05:32:46;;;;;;;9.00;7.38;;;;;;;19.86;55.03;99357.50;6221710;23;20020;-81
2021/09/09 05:35:13;;;;;;;8.38;7.05;;;;;;;19.88;54.91;99360.84;6221204;23;20032;-81
2021/09/09 05:37:40;;;;;;;12.55;7.90;;;;;;;19.90;55.19;99353.53;6221302;23;20099;-81
2021/09/09 05:40:08;;;;;;;10.38;8.23;;;;;;;19.92;54.79;99354.19;6221362;23;20099;-81
2021/09/09 05:42:36;;;;;;;10.00;7.32;;;;;;;19.92;55.12;99351.53;6221402;23;20028;-81
2021/09/09 05:45:07;;;;;;;16.40;7.40;;;;;;;19.92;55.39;99359.53;6221622;23;20035;-81
2021/09/09 05:47:34;;;;;;;9.88;7.65;;;;;;;19.95;55.40;99354.88;6221076;23;20103;-83
2021/09/09 05:50:01;;;;;;;10.63;8.25;;;;;;;19.96;54.89;99356.56;6221338;23;20091;-81
2021/09/09 05:52:27;;;;;;;12.20;7.85;;;;;;;19.96;55.05;99353.88;6221191;23;20020;-80
2021/09/09 05:54:55;;;;;;;10.55;8.13;;;;;;;19.97;55.41;99356.41;6220616;23;20102;-81
2021/09/09 05:57:22;;;;;;;9.52;7.55;;;;;;;19.98;55.56;99349.19;6221117;23;20024;-81
2021/09/09 05:59:51;;;;;;;9.85;8.13;;;;;;;19.98;55.41;99346.53;6220819;23;20019;-81
2021/09/09 06:02:19;;;;;;;12.43;7.40;;;;;;;20.01;55.68;99346.25;6220870;23;20057;-81
2021/09/09 06:04:48;;;;;;;7.40;6.55;;;;;;;20.02;55.24;99346.09;6221127;23;20059;-81
2021/09/09 06:07:14;;;;;;;8.85;7.20;;;;;;;20.05;55.29;99344.94;6220907;23;20055;-81
2021/09/09 06:09:41;;;;;;;10.30;7.80;;;;;;;20.08;55.03;99347.31;6220973;23;20028;-81
2021/09/09 06:12:09;;;;;;;11.00;7.40;;;;;;;20.11;55.55;99341.63;6221127;23;20091;-81
2021/09/09 06:14:36;;;;;;;10.77;8.27;;;;;;;20.15;55.50;99337.63;6220533;23;20020;-81
2021/09/09 06:17:03;;;;;;;8.85;7.60;;;;;;;20.21;55.18;99341.50;6220715;23;20024;-81
2021/09/09 06:19:30;;;;;;;15.45;8.02;;;;;;;20.24;55.54;99353.69;6220813;23;20024;-81
2021/09/09 06:21:58;;;;;;;10.02;6.65;;;;;;;20.28;55.52;99350.56;6220953;23;20020;-81
2021/09/09 06:24:27;;;;;;;9.70;7.13;;;;;;;20.31;55.88;99352.06;6220711;23;20023;-81
2021/09/09 06:26:54;;;;;;;10.68;6.80;;;;;;;20.38;55.62;99339.75;6220859;23;20024;-81
2021/09/09 06:29:21;;;;;;;10.30;7.25;;;;;;;20.42;55.63;99340.25;6220599;23;20099;-81
2021/09/09 06:31:48;;;;;;;9.35;7.55;;;;;;;20.49;55.29;99332.41;6220625;23;20091;-81
2021/09/09 06:34:14;;;;;;;9.48;7.18;;;;;;;20.53;55.23;99334.56;6220424;23;20038;-81
2021/09/09 06:36:47;;;;;;;11.27;7.38;;;;;;;20.57;55.49;99330.56;6220893;23;20099;-81
2021/09/09 06:39:14;;;;;;;;;;;;;;;20.64;55.00;99329.94;6221791;23;20087;-81
2021/09/09 06:41:45;;;;;;;9.68;6.43;;;;;;;20.75;54.99;99334.13;6220615;23;19916;-81
2021/09/09 06:44:16;;;;;;;11.10;7.72;;;;;;;20.78;55.21;99329.28;6220609;23;20487;-81
2021/09/09 06:46:43;;;;;;;7.88;6.95;;;;;;;20.84;54.74;99325.13;6220917;23;20028;-81
2021/09/09 06:49:10;;;;;;;8.27;6.35;;;;;;;20.89;55.06;99332.69;6246908;23;20020;-81
2021/09/09 06:51:37;;;;;;;12.23;7.00;;;;;;;20.94;54.83;99330.34;6220646;23;20067;-81
2021/09/09 06:54:04;;;;;;;9.20;7.00;;;;;;;20.99;54.93;99328.00;6220747;23;20111;-81
2021/09/09 06:56:34;;;;;;;9.73;7.25;;;;;;;21.02;54.90;99325.00;6220366;23;20103;-81
2021/09/09 06:59:01;;;;;;;8.07;6.95;;;;;;;21.11;54.48;99325.03;6220024;23;20020;-81
2021/09/09 07:01:28;;;;;;;8.48;7.07;;;;;;;21.17;54.83;99325.19;6220038;23;20020;-82
2021/09/09 07:03:58;;;;;;;8.27;6.47;;;;;;;21.22;54.40;99325.50;6220519;23;20507;-81
2021/09/09 07:06:25;;;;;;;9.13;7.03;;;;;;;21.30;54.26;99324.66;6220932;23;20054;-80
2021/09/09 07:08:58;;;;;;;9.88;6.93;;;;;;;21.34;53.91;99326.00;6220060;23;20016;-81
2021/09/09 07:11:25;;;;;;;8.63;6.90;;;;;;;21.42;54.10;99327.00;6220686;23;20483;-81
2021/09/09 07:13:52;;;;;;;8.00;6.97;;;;;;;21.50;53.94;99327.00;6219749;23;20063;-81
2021/09/09 07:16:18;;;;;;;8.65;6.85;;;;;;;21.55;53.89;99321.97;6220469;23;20055;-81
2021/09/09 07:18:45;;;;;;;10.13;6.85;;;;;;;21.61;53.69;99320.47;6246704;23;20028;-81
2021/09/09 07:21:12;;;;;;;12.82;7.50;;;;;;;21.67;53.35;99325.13;6246644;23;20094;-81
2021/09/09 07:23:43;;;;;;;13.88;6.38;;;;;;;21.70;53.10;99321.25;6220324;23;20467;-81
2021/09/09 07:26:11;;;;;;;9.30;6.88;;;;;;;21.78;53.63;99329.31;6220420;23;20115;-81
2021/09/09 07:28:41;;;;;;;8.25;6.80;;;;;;;21.83;53.52;99318.91;6220098;23;20485;-81
2021/09/09 07:31:08;;;;;;;9.57;6.88;;;;;;;21.89;53.53;99313.84;6220448;23;20515;-81
2021/09/09 07:33:38;;;;;;;7.95;7.05;;;;;;;21.93;53.63;99323.22;6220292;23;20107;-81
2021/09/09 07:36:08;;;;;;;8.85;7.25;;;;;;;21.98;53.18;99315.53;6219895;23;20055;-81
2021/09/09 07:38:36;;;;;;;14.23;7.72;;;;;;;22.03;53.63;99315.84;6219873;23;20052;-81
2021/09/09 07:41:03;;;;;;;9.82;7.75;;;;;;;22.07;53.14;99319.84;6220607;23;20313;-81
2021/09/09 07:43:35;;;;;;;8.70;7.30;;;;;;;22.10;53.04;99318.66;6220179;23;20122;-81
2021/09/09 07:46:02;;;;;;;7.95;6.25;;;;;;;22.17;53.29;99327.69;6219908;23;20059;-81
2021/09/09 07:48:32;;;;;;;10.80;7.72;;;;;;;22.20;52.89;99324.63;6220525;23;20051;-81
2021/09/09 07:50:58;;;;;;;8.88;7.28;;;;;;;22.27;52.63;99319.41;6220180;23;20479;-81
2021/09/09 07:53:29;;;;;;;10.02;7.45;;;;;;;22.31;52.42;99327.97;6220034;23;20024;-81
2021/09/09 07:55:56;;;;;;;12.68;7.10;;;;;;;22.37;52.60;99322.72;6219841;23;20510;-81
2021/09/09 07:58:25;;;;;;;9.07;6.25;;;;;;;22.43;52.35;99314.97;6219733;23;20067;-82
2021/09/09 08:00:51;;;;;;;8.95;6.82;;;;;;;22.49;52.89;99316.94;6219847;23;20056;-81
2021/09/09 08:03:22;;;;;;;9.43;7.25;;;;;;;22.54;52.44;99329.84;6220092;23;20374;-82
2021/09/09 08:05:48;;;;;;;8.68;6.80;;;;;;;22.60;52.46;99324.63;6219939;23;20028;-81
2021/09/09 08:08:15;;;;;;;9.13;7.15;;;;;;;22.66;52.52;99328.47;6219678;23;20059;-81
2021/09/09 08:10:42;;;;;;;9.90;7.00;;;;;;;22.72;52.38;99332.28;6246318;23;20066;-81
2021/09/09 08:13:12;;;;;;;9.35;7.47;;;;;;;22.76;52.43;99334.41;6219493;23;20074;-81
2021/09/09 08:15:39;;;;;;;15.73;7.20;;;;;;;22.85;51.96;99329.00;6219891;23;20106;-81
2021/09/09 08:18:07;;;;;;;7.93;6.80;;;;;;;22.92;52.19;99324.59;6220030;23;20348;-82
2021/09/09 08:20:34;;;;;;;9.07;7.30;;;;;;;22.99;52.70;99322.84;6219940;23;20388;-82
2021/09/09 08:23:01;;;;;;;10.88;7.57;;;;;;;23.07;52.10;99327.34;6219734;23;20028;-82
2021/09/09 08:25:32;;;;;;;9.07;7.32;;;;;;;23.13;51.97;99318.56;6219890;23;20320;-81
2021/09/09 08:27:59;;;;;;;10.07;6.63;;;;;;;23.21;52.05;99320.31;6246131;23;20498;-82
2021/09/09 08:30:29;;;;;;;11.75;6.97;;;;;;;23.27;51.94;99319.63;6220158;23;20082;-82
2021/09/09 08:32:56;;;;;;;8.85;6.55;;;;;;;23.36;51.58;99325.75;6219820;23;20051;-82
2021/09/09 08:35:32;;;;;;;8.98;6.70;;;;;;;23.41;51.63;99331.41;6219737;23;20031;-82
2021/09/09 08:37:58;;;;;;;8.57;6.93;;;;;;;23.52;51.73;99327.44;6219732;23;20379;-82
2021/09/09 08:40:32;;;;;;;11.70;7.40;;;;;;;23.58;51.35;99327.75;6219610;23;20059;-81
2021/09/09 08:42:59;;;;;;;8.60;6.93;;;;;;;23.67;51.39;99321.28;6219402;23;20074;-81
2021/09/09 08:45:27;;;;;;;10.57;6.80;;;;;;;23.76;51.39;99322.00;6219291;23;20066;-81
2021/09/09 08:47:57;;;;;;;7.78;6.70;;;;;;;23.84;51.30;99316.53;6219439;23;20095;-82
2021/09/09 08:50:33;;;;;;;7.38;6.32;;;;;;;23.90;51.21;99314.97;6219704;23;20087;-81
2021/09/09 08:53:01;;;;;;;11.55;6.45;;;;;;;24.01;50.81;99317.22;6219561;23;20059;-82
2021/09/09 08:55:33;;;;;;;11.50;6.47;;;;;;;24.07;50.58;99323.69;6245671;23;20024;-81
2021/09/09 08:58:02;;;;;;;;;;;;;;;24.18;51.16;99330.47;6220016;23;20039;-82
2021/09/09 09:00:29;;;;;;;7.82;5.78;;;;;;;24.33;50.53;99328.59;6219815;23;19954;-81
2021/09/09 09:02:57;;;;;;;9.32;6.05;;;;;;;24.40;50.15;99330.53;6219563;23;20059;-82
2021/09/09 09:05:26;;;;;;;6.65;5.90;;;;;;;24.49;50.13;99331.25;6219647;23;20394;-82
2021/09/09 09:08:02;;;;;;;9.60;6.05;;;;;;;24.55;49.19;99325.94;6219524;23;20028;-82
2021/09/09 09:10:32;;;;;;;7.35;5.70;;;;;;;24.66;49.12;99327.28;6219618;23;20024;-82
2021/09/09 09:12:59;;;;;;;7.07;6.38;;;;;;;24.77;49.55;99335.88;6219396;23;20024;-82
2021/09/09 09:15:39;;;;;;;11.18;6.18;;;;;;;24.84;48.96;99334.13;6219229;23;20024;-82
2021/09/09 09:18:08;;;;;;;7.63;6.28;;;;;;;24.97;48.97;99325.38;6219367;23;20059;-82
2021/09/09 09:20:52;;;;;;;6.82;6.13;;;;;;;25.04;49.04;99331.63;6219354;23;20408;-81
2021/09/09 09:23:21;;;;;;;8.35;6.15;;;;;;;25.17;48.74;99325.53;6246063;23;20116;-82
2021/09/09 09:26:02;;;;;;;8.93;6.50;;;;;;;25.24;48.04;99325.59;6220692;23;20051;-82
2021/09/09 09:28:49;;;;;;;8.18;6.40;;;;;;;25.33;48.34;99327.13;6221056;23;20343;-82
2021/09/09 09:31:31;;;;;;;7.85;6.05;;;;;;;25.44;47.38;99324.91;6221302;23;20112;-82
2021/09/09 09:34:02;;;;;;;6.28;5.65;;;;;;;25.56;47.34;99319.81;6221390;23;20094;-82
2021/09/09 09:36:52;;;;;;;8.60;5.63;;;;;;;25.61;48.11;99320.91;6221250;23;20044;-82
2021/09/09 09:39:20;;;;;;;7.95;6.28;;;;;;;25.76;47.13;99322.66;6221133;23;20058;-81
2021/09/09 09:42:01;;;;;;;5.82;5.22;;;;;;;25.81;46.26;99322.91;6221273;23;20024;-82
2021/09/09 09:44:39;;;;;;;7.15;6.13;;;;;;;25.94;46.63;99324.00;6220844;23;20062;-82
2021/09/09 09:47:13;;;;;;;6.95;5.68;;;;;;;26.01;46.69;99323.00;6125244;23;20101;-82
2021/09/09 09:49:43;;;;;;;6.65;5.90;;;;;;;26.13;46.57;99325.16;6124935;23;20018;-82
2021/09/09 09:52:26;;;;;;;7.53;6.53;;;;;;;26.21;45.31;99332.22;6124777;23;20017;-83
2021/09/09 09:54:58;;;;;;;6.82;5.55;;;;;;;26.34;45.74;99323.38;6124977;23;20485;-81
2021/09/09 09:57:57;;;;;;;7.40;5.93;;;;;;;26.38;45.31;99320.06;6125838;23;20500;-82
2021/09/09 10:00:31;;;;;;;6.40;5.72;;;;;;;26.51;45.70;99321.16;6000224;23;20031;-82
2021/09/09 10:03:01;;;;;;;6.82;6.13;;;;;;;26.61;46.14;99318.06;6124619;23;20418;-82
2021/09/09 10:05:35;;;;;;;6.38;5.68;;;;;;;26.70;47.16;99318.69;6124428;23;20441;-82
2021/09/09 10:08:08;;;;;;;9.02;6.30;;;;;;;26.79;45.44;99322.88;6124567;23;20504;-82
2021/09/09 10:10:36;;;;;;;;;;;;;;;26.90;46.78;99319.56;6130258;23;20465;-81
2021/09/09 10:13:04;;;;;;;6.35;5.72;;;;;;;27.07;45.53;99319.22;6221060;23;20274;-82
2021/09/09 10:15:41;;;;;;;11.60;6.97;;;;;;;27.12;43.89;99322.09;6221037;23;20081;-82
2021/09/09 10:18:08;;;;;;;8.30;6.22;;;;;;;27.23;44.58;99314.41;6221196;23;20409;-82
2021/09/09 10:20:41;;;;;;;7.68;6.18;;;;;;;27.31;44.86;99314.19;6247492;23;20070;-82
2021/09/09 10:23:13;;;;;;;6.82;5.65;;;;;;;27.39;44.67;99308.59;6220967;23;20502;-81
2021/09/09 10:25:45;;;;;;;7.10;6.40;;;;;;;27.50;45.13;99307.13;6220450;23;20104;-82
2021/09/09 10:28:48;;;;;;;7.10;6.07;;;;;;;27.61;45.10;99302.13;6221034;23;20055;-82
2021/09/09 10:31:21;;;;;;;6.38;5.60;;;;;;;27.78;44.04;99307.94;6201428;23;20107;-82
2021/09/09 10:33:53;;;;;;;6.72;5.75;;;;;;;27.90;43.84;99300.81;6220720;23;20110;-81
2021/09/09 10:36:44;;;;;;;6.43;5.80;;;;;;;28.01;44.59;99301.19;6220422;23;20493;-81
2021/09/09 10:39:45;;;;;;;6.78;5.47;;;;;;;28.15;44.33;99308.22;6220871;23;20019;-81
2021/09/09 10:42:45;;;;;;;12.90;5.72;;;;;;;28.29;43.52;99305.47;6220566;23;20451;-82
2021/09/09 10:45:40;;;;;;;10.90;5.22;;;;;;;28.42;43.50;99313.53;6220909;23;20386;-82
2021/09/09 10:48:22;;;;;;;6.38;5.78;;;;;;;28.52;41.36;99318.47;6218469;23;20111;-82
2021/09/09 10:51:14;;;;;;;6.45;5.40;;;;;;;28.59;41.43;99305.72;6220246;23;20016;-82
2021/09/09 10:53:56;;;;;;;8.32;5.57;;;;;;;28.68;40.94;99306.31;6220580;23;20403;-82
2021/09/09 10:56:25;;;;;;;7.73;5.23;;;;;;;28.82;41.88;99298.09;6220900;23;20020;-82
2021/09/09 10:59:19;;;;;;;5.35;4.85;;;;;;;28.93;42.50;99299.28;6220656;23;20098;-82
2021/09/09 11:01:48;;;;;;;5.43;4.93;;;;;;;29.17;43.79;99299.50;6220258;23;20066;-82
2021/09/09 11:04:31;;;;;;;5.90;5.00;;;;;;;29.42;41.93;99293.22;6220797;23;20538;-82
2021/09/09 11:07:01;;;;;;;6.07;5.30;;;;;;;29.81;41.99;99290.34;6220695;23;20051;-82
2021/09/09 11:09:29;;;;;;;5.03;4.53;;;;;;;30.28;42.03;99293.31;6220176;23;20066;-82
2021/09/09 11:12:04;;;;;;;8.18;5.32;;;;;;;30.87;41.04;99280.19;6220991;23;20028;-82
2021/09/09 11:14:32;;;;;;;6.75;4.80;;;;;;;31.53;41.21;99284.72;6220168;23;20395;-82
2021/09/09 11:16:59;;;;;;;5.53;5.03;;;;;;;32.22;41.71;99289.44;6220584;23;20060;-82
2021/09/09 11:19:27;;;;;;;7.15;4.85;;;;;;;32.95;39.13;99284.44;6220827;23;20031;-82
2021/09/09 11:22:00;;;;;;;5.55;4.95;;;;;;;33.64;36.56;99287.97;6220074;23;20066;-82
2021/09/09 11:24:27;;;;;;;5.60;5.03;;;;;;;34.31;37.54;99282.50;6219915;23;20095;-82
2021/09/09 11:26:59;;;;;;;5.32;4.35;;;;;;;34.96;38.21;99282.56;6220434;23;20400;-82
2021/09/09 11:29:25;;;;;;;5.20;4.13;;;;;;;35.59;36.29;99280.22;6220422;23;20415;-82
2021/09/09 11:31:54;;;;;;;5.22;4.70;;;;;;;36.15;34.31;99278.00;6246553;23;20095;-83
2021/09/09 11:34:41;;;;;;;4.97;4.47;;;;;;;36.69;34.62;99281.44;6220069;23;20095;-83
2021/09/09 11:37:08;;;;;;;4.60;4.20;;;;;;;37.22;32.76;99272.06;6220168;23;20451;-83
2021/09/09 11:39:36;;;;;;;4.45;4.05;;;;;;;37.67;31.26;99277.72;6220668;23;20515;-83
2021/09/09 11:42:07;;;;;;;4.63;4.15;;;;;;;38.08;30.00;99273.94;6220059;23;20028;-83
2021/09/09 11:44:40;;;;;;;6.07;4.40;;;;;;;38.43;31.30;99266.63;6219802;23;20023;-83